Time;durP1;ratioP1;P1;durP2;ratioP2;P2;SDS_P1;SDS_P2;PMS_P1;PMS_P2;Temp;Humidity;BMP_temperature;BMP_pressure;BME280_temperature;BME280_humidity;BME280_pressure;Samples;Min_cycle;Max_cycle;Signal;HPM_P1;HPM_P2
2022/11/28 00:02:25;;;;;;;7.72;3.20;;;7.10;99.90;;;;;;5016981;28;20139;-76
2022/11/28 00:04:51;;;;;;;6.25;3.00;;;7.10;99.90;;;;;;5035864;28;20025;-76
2022/11/28 00:07:17;;;;;;;8.38;3.42;;;7.00;99.90;;;;;;5035578;28;20100;-76
2022/11/28 00:09:45;;;;;;;6.35;3.22;;;7.00;99.90;;;;;;5017700;28;20045;-76
2022/11/28 00:12:10;;;;;;;6.32;2.83;;;7.10;99.90;;;;;;5035352;28;20068;-76
2022/11/28 00:14:36;;;;;;;5.60;3.03;;;7.10;99.90;;;;;;5017641;28;20025;-76
2022/11/28 00:17:04;;;;;;;9.25;3.67;;;7.00;99.90;;;;;;5035488;28;20068;-76
2022/11/28 00:19:30;;;;;;;7.80;3.13;;;7.10;99.90;;;;;;5035358;28;20021;-77
2022/11/28 00:21:55;;;;;;;6.85;3.72;;;7.10;99.90;;;;;;5017910;28;20028;-76
2022/11/28 00:24:25;;;;;;;8.15;3.47;;;7.10;99.90;;;;;;5017423;28;20033;-76
2022/11/28 00:26:50;;;;;;;6.65;3.25;;;7.10;99.90;;;;;;5035313;28;20028;-76
2022/11/28 00:29:16;;;;;;;7.93;3.53;;;;;;;;;;5035326;28;20025;-76
2022/11/28 00:31:42;;;;;;;7.40;2.75;;;7.20;99.90;;;;;;5017182;28;20109;-77
2022/11/28 00:34:13;;;;;;;11.00;2.85;;;7.20;99.90;;;;;;5035126;28;20105;-76
2022/11/28 00:36:39;;;;;;;8.60;3.20;;;7.20;99.90;;;;;;5016988;28;20021;-76
2022/11/28 00:39:05;;;;;;;6.50;2.83;;;7.20;99.90;;;;;;5017406;28;20025;-76
2022/11/28 00:41:33;;;;;;;7.45;3.30;;;7.20;99.90;;;;;;5017618;28;20056;-76
2022/11/28 00:43:59;;;;;;;5.70;3.30;;;7.30;99.90;;;;;;5035076;28;20108;-76
2022/11/28 00:46:27;;;;;;;10.82;3.58;;;9.80;99.90;;;;;;5035066;28;20123;-76
2022/11/28 00:48:53;;;;;;;6.77;3.73;;;7.40;99.90;;;;;;5163967;22;20128;-76
2022/11/28 00:51:20;;;;;;;7.28;3.25;;;7.40;99.90;;;;;;5037068;28;20063;-76
2022/11/28 00:53:47;;;;;;;8.95;3.30;;;7.40;99.90;;;;;;5054451;28;20078;-76
2022/11/28 00:56:19;;;;;;;6.75;3.28;;;7.40;99.90;;;;;;5036327;28;20024;-76
2022/11/28 00:58:47;;;;;;;8.70;2.80;;;7.50;99.90;;;;;;5054061;28;20104;-75
2022/11/28 01:01:28;;;;;;;9.43;3.63;;;7.40;99.90;;;;;;5054067;28;20020;-75
2022/11/28 01:03:56;;;;;;;10.65;3.92;;;7.40;99.90;;;;;;5054439;28;20028;-75
2022/11/28 01:06:36;;;;;;;9.75;3.67;;;7.40;99.90;;;;;;5054203;28;20024;-75
2022/11/28 01:09:09;;;;;;;8.02;3.95;;;7.40;99.90;;;;;;5036587;28;20066;-75
2022/11/28 01:11:38;;;;;;;10.35;4.45;;;7.50;99.90;;;;;;5036721;28;20021;-75
2022/11/28 01:14:04;;;;;;;7.32;3.58;;;7.50;99.90;;;;;;5054180;28;20395;-75
2022/11/28 01:16:29;;;;;;;9.20;4.20;;;7.50;99.90;;;;;;5016400;28;20029;-75
2022/11/28 01:18:55;;;;;;;9.02;4.05;;;7.50;99.90;;;;;;5034644;28;20037;-75
2022/11/28 01:21:22;;;;;;;6.65;4.47;;;7.60;99.90;;;;;;5034206;28;20026;-75
2022/11/28 01:23:51;;;;;;;7.28;3.78;;;7.50;99.90;;;;;;5034177;28;20049;-75
2022/11/28 01:26:20;;;;;;;8.45;3.55;;;7.60;99.90;;;;;;5016124;28;20080;-75
2022/11/28 01:28:46;;;;;;;5.63;3.70;;;7.50;99.90;;;;;;5016487;28;20064;-76
2022/11/28 01:31:15;;;;;;;6.43;3.75;;;9.30;99.90;;;;;;5035752;28;20017;-75
2022/11/28 01:33:41;;;;;;;7.82;4.15;;;7.60;99.90;;;;;;5036096;28;20018;-75
2022/11/28 01:36:07;;;;;;;6.95;4.00;;;7.60;99.90;;;;;;5053650;28;20469;-75
2022/11/28 01:38:33;;;;;;;7.75;4.45;;;7.60;99.90;;;;;;5053600;28;20099;-75
2022/11/28 01:41:00;;;;;;;6.15;3.80;;;7.60;99.90;;;;;;5035959;28;20116;-75
2022/11/28 01:43:26;;;;;;;8.00;3.97;;;7.60;99.90;;;;;;5035200;28;20123;-75
2022/11/28 01:45:51;;;;;;;6.72;4.00;;;7.70;99.90;;;;;;5052877;28;20559;-75
2022/11/28 01:48:40;;;;;;;7.22;3.80;;;7.80;99.90;;;;;;5035451;28;20033;-75
2022/11/28 01:51:08;;;;;;;5.25;3.65;;;7.70;99.90;;;;;;5035426;28;20055;-75
2022/11/28 01:53:40;;;;;;;5.80;4.07;;;7.80;99.90;;;;;;5053753;28;20048;-75
2022/11/28 01:56:22;;;;;;;5.75;3.78;;;7.80;99.90;;;;;;5035483;28;20125;-75
2022/11/28 01:58:56;;;;;;;5.18;3.38;;;7.80;99.90;;;;;;5053184;28;20025;-75
2022/11/28 02:01:24;;;;;;;7.18;3.95;;;7.80;99.90;;;;;;5015873;28;20017;-75
2022/11/28 02:03:49;;;;;;;5.80;3.33;;;7.80;99.90;;;;;;5025645;28;20036;-75
2022/11/28 02:06:24;;;;;;;5.75;3.85;;;7.90;99.90;;;;;;5053322;28;20037;-75
2022/11/28 02:08:54;;;;;;;6.38;3.47;;;7.90;99.90;;;;;;5035803;28;20025;-75
2022/11/28 02:12:01;;;;;;;4.50;3.22;;;7.90;99.90;;;;;;5035581;28;20021;-75
2022/11/28 02:14:29;;;;;;;3.65;2.60;;;7.90;99.90;;;;;;5035498;28;20083;-75
2022/11/28 02:17:32;;;;;;;3.63;2.70;;;8.00;99.90;;;;;;5053382;28;20036;-75
2022/11/28 02:20:21;;;;;;;4.25;2.60;;;8.00;99.90;;;;;;5053744;28;20029;-75
2022/11/28 02:23:03;;;;;;;5.35;2.80;;;8.00;99.90;;;;;;5014694;28;20033;-75
2022/11/28 02:25:55;;;;;;;3.88;2.25;;;8.00;99.90;;;;;;5035946;28;20021;-75
2022/11/28 02:29:02;;;;;;;2.88;2.03;;;8.00;99.90;;;;;;5039429;28;20044;-75
2022/11/28 02:32:06;;;;;;;2.95;1.73;;;8.00;99.90;;;;;;5023169;28;20056;-75
2022/11/28 02:34:52;;;;;;;3.60;2.00;;;8.10;99.90;;;;;;4999811;28;20396;-75
2022/11/28 02:37:25;;;;;;;2.42;1.98;;;8.10;99.90;;;;;;5006369;28;20080;-75
2022/11/28 02:40:13;;;;;;;5.30;2.25;;;8.10;99.90;;;;;;5037197;28;20025;-75
2022/11/28 02:43:16;;;;;;;3.70;2.33;;;8.10;99.90;;;;;;5037105;28;20395;-75
2022/11/28 02:46:13;;;;;;;2.78;2.08;;;8.10;99.90;;;;;;5017626;28;20033;-75
2022/11/28 02:48:48;;;;;;;2.80;1.75;;;8.10;99.90;;;;;;5056878;28;20499;-75
2022/11/28 02:51:42;;;;;;;5.78;2.22;;;8.20;99.90;;;;;;5056852;28;20096;-75
2022/11/28 02:54:11;;;;;;;4.47;3.40;;;8.20;99.90;;;;;;5039183;28;20025;-75
2022/11/28 02:56:37;;;;;;;4.50;2.45;;;8.20;99.90;;;;;;5056309;28;20096;-75
2022/11/28 02:59:04;;;;;;;4.18;2.85;;;8.20;99.90;;;;;;5038860;28;20049;-75
2022/11/28 03:01:37;;;;;;;4.65;3.10;;;8.20;99.90;;;;;;5056618;28;20024;-75
2022/11/28 03:04:17;;;;;;;6.00;3.17;;;8.20;99.90;;;;;;5038997;28;20032;-75
2022/11/28 03:07:04;;;;;;;7.57;3.38;;;8.20;99.90;;;;;;5038801;28;20028;-75
2022/11/28 03:09:54;;;;;;;6.00;3.78;;;8.10;99.90;;;;;;5038961;28;20032;-75
2022/11/28 03:12:42;;;;;;;7.55;3.80;;;8.20;99.90;;;;;;5056146;28;20021;-75
2022/11/28 03:15:10;;;;;;;5.38;3.60;;;8.20;99.90;;;;;;5056140;28;20028;-75
2022/11/28 03:18:01;;;;;;;6.18;4.03;;;8.10;99.90;;;;;;5056018;28;20037;-75
2022/11/28 03:20:38;;;;;;;5.90;3.95;;;8.10;99.90;;;;;;5038691;28;20036;-75
2022/11/28 03:23:20;;;;;;;6.95;4.40;;;8.10;99.90;;;;;;5056482;28;20360;-75
2022/11/28 03:26:00;;;;;;;5.72;4.30;;;8.10;99.90;;;;;;5055895;28;20029;-75
2022/11/28 03:28:57;;;;;;;6.70;4.68;;;8.10;99.90;;;;;;5055784;28;20036;-75
2022/11/28 03:31:44;;;;;;;7.72;4.78;;;8.10;99.90;;;;;;5056398;28;20017;-75
2022/11/28 03:34:13;;;;;;;8.93;4.43;;;8.10;99.90;;;;;;5038317;28;20112;-75
2022/11/28 03:36:52;;;;;;;10.93;5.13;;;8.10;99.90;;;;;;5037536;28;20028;-75
2022/11/28 03:39:22;;;;;;;9.20;4.93;;;8.10;99.90;;;;;;5037370;28;20025;-75
2022/11/28 03:42:02;;;;;;;12.07;5.32;;;8.10;99.90;;;;;;5038479;28;20361;-75
2022/11/28 03:44:56;;;;;;;8.45;4.35;;;8.10;99.90;;;;;;5038250;28;20025;-75
2022/11/28 03:47:27;;;;;;;13.75;4.45;;;8.10;99.90;;;;;;5055611;28;20480;-75
2022/11/28 03:49:55;;;;;;;9.43;5.53;;;8.50;99.90;;;;;;5056636;28;20021;-75
2022/11/28 03:52:31;;;;;;;8.73;4.88;;;8.10;99.90;;;;;;5038021;28;20028;-75
2022/11/28 03:55:12;;;;;;;8.27;5.25;;;8.10;99.90;;;;;;5055628;28;20021;-75
2022/11/28 03:57:46;;;;;;;8.88;5.15;;;8.10;99.90;;;;;;5055573;28;20461;-75
2022/11/28 04:00:13;;;;;;;12.88;5.35;;;8.00;99.90;;;;;;5055659;28;20028;-75
2022/11/28 04:03:18;;;;;;;10.85;5.70;;;8.10;99.90;;;;;;5055303;28;20033;-75
2022/11/28 04:06:13;;;;;;;10.02;5.63;;;8.10;99.90;;;;;;5035766;28;20029;-75
2022/11/28 04:08:45;;;;;;;10.00;5.55;;;8.00;99.90;;;;;;5017752;28;20020;-75
2022/11/28 04:11:27;;;;;;;11.27;6.30;;;8.00;99.90;;;;;;5017826;28;20025;-75
2022/11/28 04:13:57;;;;;;;12.30;5.65;;;8.10;99.90;;;;;;5035609;28;20026;-75
2022/11/28 04:16:35;;;;;;;12.98;5.93;;;8.00;99.90;;;;;;5017576;28;20040;-75
2022/11/28 04:19:30;;;;;;;11.70;6.40;;;8.00;99.90;;;;;;5017588;28;20033;-75
2022/11/28 04:22:33;;;;;;;11.13;6.00;;;8.00;99.90;;;;;;5013567;28;20038;-75
2022/11/28 04:25:05;;;;;;;12.10;6.28;;;8.00;99.90;;;;;;4994534;28;20037;-75
2022/11/28 04:27:36;;;;;;;15.75;6.55;;;8.00;99.90;;;;;;5033706;28;20029;-75
2022/11/28 04:30:04;;;;;;;14.90;6.15;;;8.00;99.90;;;;;;5017316;28;20017;-75
2022/11/28 04:32:33;;;;;;;13.67;5.60;;;8.00;99.90;;;;;;5027846;28;20027;-75
2022/11/28 04:35:05;;;;;;;11.57;6.00;;;7.90;99.90;;;;;;5036945;28;20112;-75
2022/11/28 04:37:33;;;;;;;9.80;5.32;;;8.00;99.90;;;;;;5037665;28;20031;-75
2022/11/28 04:40:00;;;;;;;10.52;5.55;;;8.00;99.90;;;;;;5036923;28;20029;-75
2022/11/28 04:42:31;;;;;;;10.75;5.18;;;8.00;99.90;;;;;;5054990;28;20426;-75
2022/11/28 04:45:03;;;;;;;13.07;6.28;;;8.00;99.90;;;;;;5036559;28;20045;-75
2022/11/28 04:47:29;;;;;;;12.70;6.30;;;8.00;99.90;;;;;;5033382;28;20079;-75
2022/11/28 04:49:54;;;;;;;10.20;5.28;;;8.00;99.90;;;;;;5034223;28;20025;-75
2022/11/28 04:52:27;;;;;;;14.55;5.82;;;8.00;99.90;;;;;;5035021;28;20052;-75
2022/11/28 04:55:05;;;;;;;13.73;5.80;;;8.00;99.90;;;;;;5034413;28;20028;-75
2022/11/28 04:57:47;;;;;;;12.43;5.83;;;8.00;99.90;;;;;;5017070;28;20361;-75
2022/11/28 05:00:17;;;;;;;8.38;5.10;;;8.70;99.90;;;;;;5021003;28;20029;-75
2022/11/28 05:02:45;;;;;;;10.80;5.97;;;8.00;99.90;;;;;;5036483;28;20025;-75
2022/11/28 05:05:14;;;;;;;13.25;5.82;;;8.00;99.90;;;;;;5036255;28;20021;-75
2022/11/28 05:07:40;;;;;;;11.07;5.55;;;8.00;99.90;;;;;;5053998;28;20037;-75
2022/11/28 05:10:11;;;;;;;12.52;5.07;;;8.00;99.90;;;;;;5036441;28;20047;-76
2022/11/28 05:12:37;;;;;;;11.55;5.30;;;8.00;99.90;;;;;;5054559;28;20084;-75
2022/11/28 05:15:03;;;;;;;11.32;6.20;;;8.00;99.90;;;;;;5054268;28;20033;-75
2022/11/28 05:17:32;;;;;;;11.38;5.78;;;8.00;99.90;;;;;;5036377;28;20392;-75
2022/11/28 05:19:57;;;;;;;16.75;5.63;;;8.00;99.90;;;;;;5053940;28;20025;-75
2022/11/28 05:22:23;;;;;;;12.18;5.78;;;8.00;99.90;;;;;;5036425;28;20074;-75
2022/11/28 05:24:49;;;;;;;9.85;5.40;;;8.00;99.90;;;;;;5036314;28;20123;-75
2022/11/28 05:27:14;;;;;;;13.90;6.85;;;8.00;99.90;;;;;;5054135;28;20025;-75
2022/11/28 05:29:42;;;;;;;16.20;6.32;;;8.00;99.90;;;;;;5036096;28;20013;-75
2022/11/28 05:32:08;;;;;;;15.90;6.65;;;8.00;99.90;;;;;;5036670;28;20017;-75
2022/11/28 05:34:35;;;;;;;14.43;6.75;;;8.00;99.90;;;;;;5035906;28;20049;-75
2022/11/28 05:37:00;;;;;;;11.32;5.95;;;8.00;99.90;;;;;;5036101;28;20395;-75
2022/11/28 05:39:26;;;;;;;14.57;6.80;;;8.00;99.90;;;;;;5053863;28;20025;-75
2022/11/28 05:41:54;;;;;;;14.15;6.63;;;8.00;99.90;;;;;;5036338;28;20032;-75
2022/11/28 05:44:20;;;;;;;14.50;6.07;;;8.00;99.90;;;;;;5036040;28;20021;-75
2022/11/28 05:46:46;;;;;;;15.80;7.15;;;8.00;99.90;;;;;;5053908;28;20033;-75
2022/11/28 05:49:11;;;;;;;12.48;6.63;;;8.00;99.90;;;;;;5035246;28;20365;-75
2022/11/28 05:51:37;;;;;;;14.05;6.45;;;8.00;99.90;;;;;;5053944;28;20082;-75
2022/11/28 05:54:02;;;;;;;13.32;6.90;;;8.00;99.90;;;;;;5035755;28;20115;-75
2022/11/28 05:56:28;;;;;;;14.43;7.03;;;8.00;99.90;;;;;;5036026;28;20021;-75
2022/11/28 05:58:54;;;;;;;13.38;6.63;;;8.00;99.90;;;;;;5053807;28;20021;-75
2022/11/28 06:01:23;;;;;;;10.88;5.97;;;8.00;99.90;;;;;;5038415;28;20395;-75
2022/11/28 06:03:49;;;;;;;10.48;5.90;;;8.00;99.90;;;;;;5057756;28;20041;-75
2022/11/28 06:06:24;;;;;;;10.70;5.88;;;8.00;99.90;;;;;;5057642;28;20068;-75
2022/11/28 06:08:51;;;;;;;11.65;5.82;;;8.00;99.90;;;;;;5058051;28;20055;-75
2022/11/28 06:11:18;;;;;;;13.63;6.88;;;8.00;99.90;;;;;;5039858;28;20510;-74
2022/11/28 06:13:45;;;;;;;11.10;5.75;;;8.00;99.90;;;;;;5039869;28;20013;-74
2022/11/28 06:16:14;;;;;;;13.27;6.15;;;8.10;99.90;;;;;;5039676;28;20024;-75
2022/11/28 06:18:40;;;;;;;11.30;5.60;;;8.10;99.90;;;;;;5039495;28;20074;-75
2022/11/28 06:21:08;;;;;;;14.80;6.70;;;8.10;99.90;;;;;;5039958;28;20535;-74
2022/11/28 06:23:34;;;;;;;10.93;5.72;;;8.00;99.90;;;;;;5058254;28;20087;-74
2022/11/28 06:26:11;;;;;;;22.20;6.93;;;8.00;99.90;;;;;;5039624;28;20112;-75
2022/11/28 06:28:37;;;;;;;16.00;7.38;;;8.00;99.90;;;;;;5039749;28;20028;-75
2022/11/28 06:31:04;;;;;;;11.05;5.80;;;8.00;99.90;;;;;;5040254;28;20017;-75
2022/11/28 06:33:30;;;;;;;13.25;6.20;;;8.10;99.90;;;;;;5057091;28;20077;-75
2022/11/28 06:36:00;;;;;;;13.50;6.75;;;8.00;99.90;;;;;;5039771;28;20029;-74
2022/11/28 06:38:25;;;;;;;15.13;7.50;;;8.10;99.90;;;;;;5039537;28;20191;-74
2022/11/28 06:41:05;;;;;;;13.45;6.20;;;8.00;99.90;;;;;;5039559;28;20071;-74
2022/11/28 06:43:30;;;;;;;15.57;7.47;;;8.00;99.90;;;;;;5057401;28;20021;-75
2022/11/28 06:45:56;;;;;;;15.35;7.57;;;8.10;99.90;;;;;;5039182;28;20036;-75
2022/11/28 06:48:22;;;;;;;12.38;6.55;;;8.10;99.90;;;;;;5056993;28;20575;-74
2022/11/28 06:50:47;;;;;;;14.75;7.22;;;8.10;99.90;;;;;;5057171;28;20477;-74
2022/11/28 06:53:14;;;;;;;13.52;7.05;;;8.10;99.90;;;;;;5057704;28;20075;-73
2022/11/28 06:55:40;;;;;;;13.27;6.57;;;8.10;99.90;;;;;;5056930;28;20021;-73
2022/11/28 06:58:06;;;;;;;16.75;6.38;;;8.10;99.90;;;;;;5038899;28;20492;-73
2022/11/28 07:00:31;;;;;;;15.10;7.00;;;8.10;99.90;;;;;;5056733;28;20063;-74
2022/11/28 07:02:57;;;;;;;19.40;8.20;;;8.10;99.90;;;;;;5039152;28;20070;-74
2022/11/28 07:05:26;;;;;;;19.38;8.45;;;8.10;99.90;;;;;;5056704;28;20021;-74
2022/11/28 07:07:52;;;;;;;17.58;8.20;;;8.10;99.90;;;;;;5056876;28;20112;-75
2022/11/28 07:10:19;;;;;;;16.20;7.38;;;8.10;99.90;;;;;;5055982;28;20063;-75
2022/11/28 07:12:44;;;;;;;20.08;8.52;;;8.10;99.90;;;;;;5056284;28;20388;-75
2022/11/28 07:15:10;;;;;;;15.23;7.65;;;8.10;99.90;;;;;;5038514;28;20017;-75
2022/11/28 07:17:36;;;;;;;18.55;7.55;;;8.10;99.90;;;;;;5038579;28;20029;-75
2022/11/28 07:20:02;;;;;;;22.92;9.40;;;8.40;99.90;;;;;;5038594;28;20135;-74
2022/11/28 07:22:28;;;;;;;21.70;8.57;;;8.10;99.90;;;;;;5038629;28;20040;-75
2022/11/28 07:24:53;;;;;;;22.80;9.93;;;8.20;99.90;;;;;;5056349;28;20033;-75
2022/11/28 07:27:19;;;;;;;19.75;8.68;;;8.20;99.90;;;;;;5056848;28;20033;-74
2022/11/28 07:29:52;;;;;;;18.13;8.57;;;8.20;99.90;;;;;;5038391;28;20028;-76
2022/11/28 07:32:17;;;;;;;17.13;8.13;;;8.20;99.90;;;;;;5038424;28;20029;-76
2022/11/28 07:34:44;;;;;;;19.50;8.32;;;8.20;99.90;;;;;;5055683;28;20101;-76
2022/11/28 07:37:09;;;;;;;20.63;9.52;;;8.20;99.90;;;;;;5055643;28;20547;-76
2022/11/28 07:39:35;;;;;;;20.15;9.02;;;8.20;99.90;;;;;;5055875;28;20085;-76
2022/11/28 07:42:00;;;;;;;20.73;8.20;;;8.20;99.90;;;;;;5037844;28;20067;-76
2022/11/28 07:44:26;;;;;;;19.45;8.38;;;8.20;99.90;;;;;;5055500;28;20025;-76
2022/11/28 07:46:52;;;;;;;22.02;9.52;;;8.20;99.90;;;;;;5037399;28;20444;-76
2022/11/28 07:49:17;;;;;;;24.02;8.38;;;8.20;99.90;;;;;;5037948;28;20041;-76
2022/11/28 07:51:43;;;;;;;23.98;8.95;;;8.20;99.90;;;;;;5055381;28;20092;-76
2022/11/28 07:54:08;;;;;;;19.58;8.73;;;8.20;99.90;;;;;;5037791;28;20025;-76
2022/11/28 07:56:36;;;;;;;20.02;8.70;;;8.20;99.90;;;;;;5056644;28;20128;-76
2022/11/28 07:59:03;;;;;;;19.30;9.68;;;8.20;99.90;;;;;;5054973;28;20020;-76
2022/11/28 08:01:32;;;;;;;21.90;9.80;;;8.20;99.90;;;;;;5055299;28;20036;-76
2022/11/28 08:03:58;;;;;;;22.50;8.88;;;8.20;99.90;;;;;;5054888;28;20033;-76
2022/11/28 08:06:27;;;;;;;24.80;9.55;;;8.20;99.90;;;;;;5055505;28;20031;-76
2022/11/28 08:08:54;;;;;;;23.27;9.43;;;8.30;99.90;;;;;;5038096;28;20058;-76
2022/11/28 08:11:21;;;;;;;27.77;9.50;;;8.20;99.90;;;;;;5054932;28;20021;-76
2022/11/28 08:13:47;;;;;;;25.55;10.82;;;8.30;99.90;;;;;;5037176;28;20116;-76
2022/11/28 08:16:16;;;;;;;23.23;9.65;;;8.20;99.90;;;;;;5037226;28;20031;-76
2022/11/28 08:18:42;;;;;;;30.75;10.55;;;8.30;99.90;;;;;;5055038;28;20021;-76
2022/11/28 08:21:14;;;;;;;26.77;10.07;;;8.30;99.90;;;;;;5054765;28;20032;-76
2022/11/28 08:23:40;;;;;;;26.15;10.88;;;8.30;99.90;;;;;;5035903;28;20031;-76
2022/11/28 08:26:12;;;;;;;22.80;9.48;;;8.30;99.90;;;;;;5036245;28;20515;-76
2022/11/28 08:28:37;;;;;;;28.90;10.60;;;8.30;99.90;;;;;;5036803;28;20574;-76
2022/11/28 08:31:13;;;;;;;26.75;10.25;;;8.60;99.90;;;;;;5055104;28;20048;-76
2022/11/28 08:33:38;;;;;;;25.85;11.35;;;8.40;99.90;;;;;;5036902;28;20025;-76
2022/11/28 08:36:06;;;;;;;26.83;10.93;;;8.40;99.90;;;;;;5054368;28;20032;-76
2022/11/28 08:38:31;;;;;;;26.42;11.13;;;8.40;99.90;;;;;;5054596;28;20033;-76
2022/11/28 08:41:06;;;;;;;30.58;11.80;;;8.40;99.90;;;;;;5055476;28;20032;-76
2022/11/28 08:43:33;;;;;;;32.60;12.25;;;8.40;99.90;;;;;;5054938;28;20037;-77
2022/11/28 08:45:59;;;;;;;36.20;13.10;;;8.40;99.90;;;;;;5055497;28;20024;-77
2022/11/28 08:48:25;;;;;;;29.40;12.07;;;8.50;99.90;;;;;;5054870;28;20037;-76
2022/11/28 08:50:50;;;;;;;33.00;12.55;;;8.50;99.90;;;;;;5036513;28;20017;-76
2022/11/28 08:53:16;;;;;;;32.80;12.18;;;8.50;99.90;;;;;;5054818;28;20029;-76
2022/11/28 08:55:43;;;;;;;30.88;11.57;;;8.50;99.90;;;;;;5054793;28;20482;-77
2022/11/28 08:58:09;;;;;;;30.70;13.07;;;8.50;99.90;;;;;;5054590;28;20013;-77
2022/11/28 09:00:35;;;;;;;35.75;12.20;;;8.50;99.90;;;;;;5054390;28;20021;-76
2022/11/28 09:03:01;;;;;;;36.25;13.80;;;8.60;99.90;;;;;;5054440;28;20100;-77
2022/11/28 09:05:27;;;;;;;37.03;14.80;;;8.60;99.90;;;;;;5054149;28;20032;-77
2022/11/28 09:07:54;;;;;;;35.72;13.15;;;8.70;99.90;;;;;;5036214;28;20025;-77
2022/11/28 09:10:19;;;;;;;36.60;13.80;;;8.60;99.90;;;;;;5054613;28;20357;-77
2022/11/28 09:12:45;;;;;;;48.90;15.32;;;8.70;99.90;;;;;;5054833;28;20017;-77
2022/11/28 09:15:10;;;;;;;36.95;14.15;;;8.70;99.90;;;;;;5035855;28;20029;-77
2022/11/28 09:17:36;;;;;;;43.35;14.68;;;8.70;99.90;;;;;;5036688;28;20037;-77
2022/11/28 09:20:03;;;;;;;41.00;15.35;;;8.70;99.90;;;;;;5054683;28;20021;-77
2022/11/28 09:22:28;;;;;;;45.08;15.02;;;8.70;99.90;;;;;;5053939;28;20020;-77
2022/11/28 09:24:54;;;;;;;36.35;12.52;;;8.70;99.90;;;;;;5055049;28;20028;-77
2022/11/28 09:27:20;;;;;;;39.50;14.80;;;8.70;99.90;;;;;;5054127;28;20110;-77
2022/11/28 09:29:45;;;;;;;43.55;14.88;;;8.80;99.90;;;;;;5053970;28;20071;-77
2022/11/28 09:32:11;;;;;;;42.28;14.50;;;8.80;99.90;;;;;;5036598;28;20427;-77
2022/11/28 09:34:36;;;;;;;44.88;14.93;;;8.80;99.90;;;;;;5036068;28;20384;-77
2022/11/28 09:37:02;;;;;;;43.00;14.27;;;8.90;99.90;;;;;;5054170;28;20396;-77
2022/11/28 09:39:28;;;;;;;42.15;13.85;;;8.90;99.90;;;;;;5053871;28;20032;-77
2022/11/28 09:41:57;;;;;;;45.10;14.73;;;8.90;99.90;;;;;;5053594;28;20491;-73
2022/11/28 09:44:32;;;;;;;43.47;14.60;;;8.90;99.90;;;;;;5053853;28;20031;-73
2022/11/28 09:47:03;;;;;;;41.45;13.48;;;8.90;99.90;;;;;;5053819;28;20395;-73
2022/11/28 09:49:40;;;;;;;41.05;15.30;;;9.00;99.90;;;;;;5053773;28;20032;-73
2022/11/28 09:52:47;;;;;;;46.13;15.60;;;9.00;99.90;;;;;;5035971;28;20116;-73
2022/11/28 09:55:19;;;;;;;56.20;17.20;;;9.00;99.90;;;;;;5051524;28;20437;-73
2022/11/28 09:57:47;;;;;;;42.67;15.45;;;9.10;99.90;;;;;;5035512;28;20064;-75
2022/11/28 10:00:17;;;;;;;41.92;15.05;;;9.10;99.90;;;;;;5053919;28;20024;-73
2022/11/28 10:03:01;;;;;;;46.10;13.90;;;9.10;99.90;;;;;;5035779;28;20025;-76
2022/11/28 10:06:00;;;;;;;47.42;15.43;;;9.10;99.90;;;;;;5053795;28;20041;-76
2022/11/28 10:08:48;;;;;;;43.55;14.70;;;9.10;99.90;;;;;;5054006;28;20033;-76
2022/11/28 10:11:28;;;;;;;49.33;14.63;;;9.20;99.90;;;;;;5053487;28;20025;-76
2022/11/28 10:14:32;;;;;;;48.40;15.52;;;9.20;99.90;;;;;;5053760;28;20072;-74
2022/11/28 10:17:13;;;;;;;47.17;13.95;;;9.20;99.90;;;;;;5053348;28;20053;-75
2022/11/28 10:19:48;;;;;;;41.40;14.23;;;9.20;99.90;;;;;;5050653;28;20034;-76
2022/11/28 10:22:19;;;;;;;58.47;16.33;;;9.30;99.90;;;;;;5054309;28;20027;-76
2022/11/28 10:24:54;;;;;;;48.17;14.82;;;9.30;99.90;;;;;;5035402;28;20021;-76
2022/11/28 10:27:24;;;;;;;47.20;14.02;;;9.30;99.90;;;;;;5053308;28;20024;-76
2022/11/28 10:29:56;;;;;;;48.22;15.15;;;9.30;99.90;;;;;;5053375;28;20018;-76
2022/11/28 10:32:34;;;;;;;47.78;16.27;;;9.30;99.90;;;;;;5053501;28;20021;-77
2022/11/28 10:35:04;;;;;;;53.88;16.98;;;9.30;99.90;;;;;;5052079;28;20032;-76
2022/11/28 10:37:33;;;;;;;50.80;14.68;;;9.30;99.90;;;;;;5053505;28;20021;-76
2022/11/28 10:40:11;;;;;;;;;;;9.30;99.90;;;;;;5035438;28;20021;-76
2022/11/28 10:42:48;;;;;;;50.80;14.63;;;9.40;99.90;;;;;;5035038;28;19932;-76
2022/11/28 10:45:33;;;;;;;48.75;15.05;;;9.40;99.90;;;;;;5052858;28;20043;-76
2022/11/28 10:48:10;;;;;;;46.17;14.38;;;9.50;99.90;;;;;;5056521;28;20450;-76
2022/11/28 10:50:57;;;;;;;47.53;15.05;;;9.50;99.90;;;;;;5038854;28;20458;-76
2022/11/28 10:54:02;;;;;;;47.35;13.57;;;9.50;99.90;;;;;;5057282;28;20029;-76
2022/11/28 10:56:42;;;;;;;39.53;13.15;;;9.60;99.90;;;;;;5053132;28;20044;-76
2022/11/28 10:59:28;;;;;;;42.58;14.25;;;9.60;99.90;;;;;;5048665;28;20029;-76
2022/11/28 11:01:55;;;;;;;57.05;15.20;;;9.60;99.90;;;;;;5057169;28;20060;-76
2022/11/28 11:04:25;;;;;;;43.55;13.50;;;9.70;99.90;;;;;;5038853;28;20024;-76
2022/11/28 11:07:12;;;;;;;47.65;14.18;;;9.70;99.90;;;;;;5056298;28;20111;-76
2022/11/28 11:09:37;;;;;;;41.30;12.80;;;9.70;99.90;;;;;;5056870;28;20017;-76
2022/11/28 11:12:09;;;;;;;42.38;13.10;;;9.80;99.90;;;;;;5038873;28;20025;-76
2022/11/28 11:14:42;;;;;;;45.22;14.82;;;9.80;99.90;;;;;;5056643;28;20021;-76
2022/11/28 11:17:49;;;;;;;45.17;14.18;;;9.70;99.90;;;;;;5039344;28;20029;-76
2022/11/28 11:20:28;;;;;;;41.35;12.88;;;9.70;99.90;;;;;;5036341;28;20396;-76
2022/11/28 11:23:11;;;;;;;44.08;15.15;;;9.70;99.90;;;;;;5039026;28;20032;-76
2022/11/28 11:25:36;;;;;;;36.28;13.10;;;9.60;99.90;;;;;;5056449;28;20400;-76
2022/11/28 11:28:03;;;;;;;38.75;13.27;;;9.60;99.90;;;;;;5056178;28;20017;-76
2022/11/28 11:30:37;;;;;;;39.63;13.15;;;9.60;99.90;;;;;;5056414;28;20017;-77
2022/11/28 11:33:05;;;;;;;42.50;13.30;;;9.60;99.90;;;;;;5038384;28;20021;-76
2022/11/28 11:35:41;;;;;;;39.08;12.95;;;9.60;99.90;;;;;;5056099;28;20021;-76
2022/11/28 11:38:19;;;;;;;38.78;14.10;;;10.60;99.90;;;;;;5056122;28;20033;-76
2022/11/28 11:40:48;;;;;;;36.80;12.77;;;9.60;99.90;;;;;;5055889;28;20108;-76
2022/11/28 11:43:25;;;;;;;34.40;12.05;;;9.70;99.90;;;;;;5055359;28;20025;-76
2022/11/28 11:46:10;;;;;;;33.08;11.50;;;9.70;99.90;;;;;;5055801;28;20031;-76
2022/11/28 11:48:46;;;;;;;37.83;11.77;;;9.80;99.90;;;;;;5055728;28;20509;-76
2022/11/28 11:51:30;;;;;;;32.65;11.18;;;9.70;99.90;;;;;;5037687;28;20023;-76
2022/11/28 11:54:19;;;;;;;41.53;13.43;;;9.80;99.90;;;;;;5055750;28;20056;-75
2022/11/28 11:56:47;;;;;;;30.48;11.50;;;9.80;99.90;;;;;;5027564;28;20033;-76
2022/11/28 11:59:34;;;;;;;27.07;10.83;;;9.80;99.90;;;;;;5036040;28;20092;-76
2022/11/28 12:02:07;;;;;;;30.20;11.50;;;9.80;99.90;;;;;;5055793;28;20462;-76
2022/11/28 12:04:38;;;;;;;31.00;11.68;;;9.70;99.90;;;;;;5038325;28;20447;-76
2022/11/28 12:07:08;;;;;;;32.63;11.75;;;9.70;99.90;;;;;;5055853;28;20108;-75
2022/11/28 12:09:42;;;;;;;32.58;12.38;;;9.80;99.90;;;;;;5037433;28;20017;-75
2022/11/28 12:12:18;;;;;;;34.00;12.15;;;9.70;99.90;;;;;;5056126;28;20021;-76
2022/11/28 12:14:46;;;;;;;34.20;12.93;;;9.70;99.90;;;;;;5037330;28;20025;-76
2022/11/28 12:17:30;;;;;;;35.40;13.75;;;9.60;99.90;;;;;;5055187;28;20387;-76
2022/11/28 12:20:17;;;;;;;35.05;13.27;;;9.70;99.90;;;;;;5037163;28;20033;-75
2022/11/28 12:23:20;;;;;;;34.10;12.98;;;9.70;99.90;;;;;;5055156;28;20029;-76
2022/11/28 12:26:12;;;;;;;34.53;12.90;;;9.70;99.90;;;;;;5054659;28;20033;-76
2022/11/28 12:28:56;;;;;;;35.08;13.23;;;9.80;99.90;;;;;;5038299;28;20029;-76
2022/11/28 12:31:50;;;;;;;33.92;12.73;;;9.90;99.90;;;;;;5053885;28;20048;-75
2022/11/28 12:34:16;;;;;;;30.55;12.13;;;10.00;99.90;;;;;;5055133;28;20104;-75
2022/11/28 12:37:04;;;;;;;30.38;11.40;;;10.10;99.90;;;;;;5036648;28;20510;-75
2022/11/28 12:39:46;;;;;;;28.80;11.63;;;10.20;99.90;;;;;;5055205;28;20383;-75
2022/11/28 12:42:37;;;;;;;26.95;12.00;;;10.30;99.90;;;;;;5036671;28;20024;-76
2022/11/28 12:45:39;;;;;;;33.10;11.73;;;10.30;99.90;;;;;;5054004;28;20029;-76
2022/11/28 12:48:11;;;;;;;26.75;11.00;;;10.40;99.90;;;;;;5069341;22;20613;-75
2022/11/28 12:50:38;;;;;;;23.83;10.10;;;11.10;99.90;;;;;;5094598;28;20032;-76
2022/11/28 12:53:40;;;;;;;25.33;10.20;;;10.40;99.90;;;;;;5076368;28;20038;-76
2022/11/28 12:56:28;;;;;;;24.25;10.30;;;10.40;99.90;;;;;;5063175;28;20029;-76
2022/11/28 12:58:59;;;;;;;25.05;9.60;;;10.40;99.90;;;;;;5074436;28;20116;-76
2022/11/28 13:01:57;;;;;;;28.30;10.93;;;10.40;99.90;;;;;;5056017;28;20097;-76
2022/11/28 13:04:49;;;;;;;29.48;12.25;;;10.30;99.90;;;;;;5054891;28;20037;-76
2022/11/28 13:07:42;;;;;;;31.63;10.98;;;10.30;99.90;;;;;;5073618;28;20033;-76
2022/11/28 13:10:07;;;;;;;28.95;10.65;;;10.20;99.90;;;;;;5073742;28;20028;-76
2022/11/28 13:12:48;;;;;;;30.77;11.23;;;10.20;99.90;;;;;;5074039;28;20443;-76
2022/11/28 13:15:37;;;;;;;33.53;10.82;;;10.20;99.90;;;;;;5073777;28;20425;-76
2022/11/28 13:18:26;;;;;;;30.20;10.43;;;10.20;99.90;;;;;;5056304;28;20028;-76